createdAt,value
2022-10-19T00:00:33.392Z,4.00
2022-10-19T00:05:36.039Z,3.00
2022-10-19T00:10:41.178Z,2.75
2022-10-19T00:15:46.062Z,3.50
2022-10-19T00:20:48.737Z,2.00
2022-10-19T00:25:57.694Z,4.00
2022-10-19T00:31:05.252Z,4.50
2022-10-19T00:36:16.711Z,4.00
2022-10-19T00:41:20.964Z,2.75
2022-10-19T00:46:25.646Z,4.00
2022-10-19T00:51:30.130Z,2.00
2022-10-19T00:56:33.412Z,3.00
2022-10-19T01:01:37.849Z,3.25
2022-10-19T01:06:41.798Z,3.00
2022-10-19T01:11:51.647Z,4.00
2022-10-19T01:17:06.785Z,2.25
2022-10-19T01:22:25.057Z,3.50
2022-10-19T01:28:04.269Z,3.00
2022-10-19T01:33:22.880Z,3.25
2022-10-19T01:38:34.900Z,2.00
2022-10-19T01:43:43.862Z,3.00
2022-10-19T01:48:55.943Z,3.00
2022-10-19T01:54:02.259Z,3.50
2022-10-19T01:59:08.905Z,3.00
2022-10-19T02:04:16.871Z,2.00
2022-10-19T02:09:20.181Z,2.00
2022-10-19T02:14:26.650Z,3.00
2022-10-19T02:19:30.768Z,2.75
2022-10-19T02:24:33.497Z,2.00
2022-10-19T02:29:38.105Z,2.00
2022-10-19T02:34:42.867Z,4.25
2022-10-19T02:39:45.546Z,2.75
2022-10-19T02:44:52.627Z,2.25
2022-10-19T02:49:56.865Z,2.00
2022-10-19T02:54:59.637Z,2.75
2022-10-19T03:00:03.525Z,2.50
2022-10-19T03:05:08.735Z,3.50
2022-10-19T03:10:11.349Z,3.50
2022-10-19T03:15:16.808Z,3.00
2022-10-19T03:20:20.886Z,2.00
2022-10-19T03:25:23.703Z,2.00
2022-10-19T03:30:29.137Z,3.00
2022-10-19T03:35:33.229Z,2.75
2022-10-19T03:40:35.922Z,2.25
2022-10-19T03:45:38.614Z,2.75
2022-10-19T03:50:42.600Z,2.00
2022-10-19T03:55:45.421Z,3.25
2022-10-19T04:00:48.127Z,2.00
2022-10-19T04:05:52.229Z,2.00
2022-10-19T04:11:00.173Z,1.75
2022-10-19T04:16:03.342Z,2.00
2022-10-19T04:21:07.986Z,2.75
2022-10-19T04:26:10.865Z,1.50
2022-10-19T04:31:14.102Z,2.00
2022-10-19T04:36:18.147Z,2.75
2022-10-19T04:41:22.057Z,3.00
2022-10-19T04:46:25.960Z,2.00
2022-10-19T04:51:30.355Z,2.00
2022-10-19T04:56:33.293Z,2.00
2022-10-19T05:01:35.920Z,2.00
2022-10-19T05:06:39.907Z,2.00
2022-10-19T05:11:42.586Z,3.00
2022-10-19T05:16:45.361Z,2.00
2022-10-19T05:21:49.360Z,2.00
2022-10-19T05:26:52.309Z,2.00
2022-10-19T05:31:55.064Z,1.50
2022-10-19T05:36:59.153Z,2.00
2022-10-19T05:42:01.775Z,1.00
2022-10-19T05:47:04.485Z,2.75
2022-10-19T05:52:08.489Z,2.00
2022-10-19T05:57:11.194Z,2.00
2022-10-19T06:02:15.103Z,3.50
2022-10-19T06:07:19.332Z,2.75
2022-10-19T06:12:24.932Z,1.25
2022-10-19T06:17:29.906Z,2.00
2022-10-19T06:22:34.003Z,1.75
2022-10-19T06:27:37.355Z,1.50
2022-10-19T06:32:40.438Z,3.25
2022-10-19T06:37:45.381Z,2.50
2022-10-19T06:42:48.107Z,2.00
2022-10-19T06:47:50.890Z,3.00
2022-10-19T06:52:54.965Z,2.75
2022-10-19T06:58:01.589Z,2.00
2022-10-19T07:03:04.330Z,1.50
2022-10-19T07:08:08.464Z,2.00
2022-10-19T07:13:11.160Z,1.50
2022-10-19T07:18:14.360Z,2.00
2022-10-19T07:23:18.337Z,2.50
2022-10-19T07:28:21.922Z,2.75
2022-10-19T07:33:25.276Z,1.00
2022-10-19T07:38:29.958Z,2.00
2022-10-19T07:43:32.896Z,1.75
2022-10-19T07:48:36.376Z,2.00
2022-10-19T07:53:40.631Z,2.00
2022-10-19T07:58:43.457Z,1.00
2022-10-19T08:09:27.765Z,1.50
2022-10-19T08:14:34.530Z,2.75
2022-10-19T08:19:41.305Z,1.00
2022-10-19T08:24:45.696Z,1.75
2022-10-19T08:29:48.587Z,1.00
2022-10-19T08:34:51.586Z,1.00
2022-10-19T08:39:55.791Z,2.75
2022-10-19T08:45:26.877Z,1.75
2022-10-19T08:50:36.616Z,1.00
2022-10-19T08:55:50.720Z,1.25
2022-10-19T09:01:01.418Z,2.00
2022-10-19T09:06:19.984Z,2.00
2022-10-19T09:11:26.687Z,4.00
2022-10-19T09:16:29.435Z,5.50
2022-10-19T09:21:47.407Z,5.00
2022-10-19T09:26:54.592Z,4.25
2022-10-19T09:32:01.565Z,5.00
2022-10-19T09:37:04.774Z,2.25
2022-10-19T09:42:19.561Z,4.00
2022-10-19T09:47:39.421Z,2.50
2022-10-19T09:52:44.308Z,2.00
2022-10-19T09:57:50.609Z,2.00
2022-10-19T10:02:55.708Z,2.00
2022-10-19T10:07:59.223Z,3.00
2022-10-19T10:13:04.126Z,3.00
2022-10-19T10:18:06.862Z,2.50
2022-10-19T10:23:24.488Z,2.50
2022-10-19T10:28:29.917Z,1.50
2022-10-19T10:39:06.010Z,2.00
2022-10-19T10:44:20.236Z,1.25
2022-10-19T10:49:25.809Z,1.00
2022-10-19T10:54:31.200Z,1.50
2022-10-19T10:59:44.755Z,1.75
2022-10-19T11:04:53.273Z,1.75
2022-10-19T11:09:59.765Z,2.50
2022-10-19T11:15:13.045Z,2.25
2022-10-19T11:20:16.977Z,3.00
2022-10-19T11:25:32.219Z,6.00
2022-10-19T11:30:49.879Z,4.25
2022-10-19T11:35:58.037Z,3.00
2022-10-19T11:41:19.066Z,3.00
2022-10-19T11:46:29.883Z,4.25
2022-10-19T11:51:39.880Z,2.00
2022-10-19T11:57:02.875Z,2.00
2022-10-19T12:02:31.713Z,2.75
2022-10-19T12:07:51.203Z,1.75
2022-10-19T12:12:58.767Z,2.75
2022-10-19T12:18:08.320Z,2.00
2022-10-19T12:23:24.024Z,1.00
2022-10-19T12:28:30.984Z,2.00
2022-10-19T12:33:47.279Z,1.50
2022-10-19T12:39:00.842Z,1.25
2022-10-19T12:44:21.385Z,1.25
2022-10-19T12:49:45.513Z,1.00
2022-10-19T12:54:48.507Z,1.00
2022-10-19T13:00:01.472Z,1.50
2022-10-19T13:05:06.657Z,1.00
2022-10-19T13:10:21.805Z,1.50
2022-10-19T13:15:58.100Z,2.00
2022-10-19T13:21:03.617Z,1.75
2022-10-19T13:26:33.640Z,1.00
2022-10-19T13:31:37.543Z,1.00
2022-10-19T13:37:00.844Z,2.00
2022-10-19T13:42:03.638Z,1.00
2022-10-19T13:47:32.535Z,1.00
2022-10-19T13:53:12.461Z,1.00
2022-10-19T13:59:03.384Z,1.00
2022-10-19T14:04:20.585Z,2.00
2022-10-19T14:09:43.733Z,2.00
2022-10-19T14:14:46.660Z,2.00
2022-10-19T14:19:51.947Z,0.50
2022-10-19T14:25:03.606Z,0.75
2022-10-19T14:30:07.890Z,3.00
2022-10-19T14:35:21.504Z,1.50
2022-10-19T14:40:28.660Z,0.00
2022-10-19T14:45:33.059Z,2.00
2022-10-19T14:50:47.318Z,1.00
2022-10-19T14:55:55.557Z,1.00
2022-10-19T15:00:58.365Z,1.00
2022-10-19T15:06:03.723Z,0.00
2022-10-19T15:11:09.001Z,1.00
2022-10-19T15:16:29.887Z,1.00
2022-10-19T15:21:33.485Z,1.00
2022-10-19T15:26:38.043Z,1.00
2022-10-19T15:31:40.829Z,0.00
2022-10-19T15:36:55.465Z,1.00
2022-10-19T15:42:22.808Z,1.00
2022-10-19T15:47:26.824Z,1.25
2022-10-19T15:52:32.854Z,1.25
2022-10-19T15:57:39.287Z,1.00
2022-10-19T16:02:42.633Z,1.00
2022-10-19T16:07:45.507Z,1.75
2022-10-19T16:12:49.638Z,0.00
2022-10-19T16:17:55.125Z,1.25
2022-10-19T16:22:58.714Z,0.00
2022-10-19T16:28:02.835Z,1.00
2022-10-19T16:33:05.674Z,0.50
2022-10-19T16:38:08.280Z,0.75
2022-10-19T16:43:12.317Z,2.25
2022-10-19T16:48:14.961Z,0.00
2022-10-19T16:53:17.692Z,1.00
2022-10-19T16:58:21.638Z,0.00
2022-10-19T17:03:24.243Z,1.75
2022-10-19T17:08:36.678Z,1.25
2022-10-19T17:13:41.904Z,2.00
2022-10-19T17:18:44.898Z,2.50
2022-10-19T17:23:47.951Z,1.00
2022-10-19T17:28:51.948Z,2.50
2022-10-19T17:33:55.373Z,3.25
2022-10-19T17:38:59.752Z,2.00
2022-10-19T17:44:05.395Z,3.00
2022-10-19T17:49:08.919Z,2.25
2022-10-19T17:54:13.728Z,2.00
2022-10-19T17:59:22.613Z,2.00
2022-10-19T18:04:32.479Z,2.75
2022-10-19T18:09:35.132Z,2.00
2022-10-19T18:14:39.182Z,3.00
2022-10-19T18:19:42.019Z,4.00
2022-10-19T18:24:44.959Z,4.00
2022-10-19T18:29:49.168Z,3.00
2022-10-19T18:34:51.799Z,4.50
2022-10-19T18:39:54.507Z,4.00
2022-10-19T18:44:58.853Z,4.50
2022-10-19T18:50:01.799Z,5.25
2022-10-19T18:55:05.208Z,6.00
2022-10-19T19:00:11.027Z,6.50
2022-10-19T19:05:13.780Z,7.25
2022-10-19T19:10:16.996Z,6.50
2022-10-19T19:15:21.005Z,6.00
2022-10-19T19:20:23.625Z,7.75
2022-10-19T19:25:26.268Z,7.25
2022-10-19T19:30:30.369Z,9.50
2022-10-19T19:35:33.178Z,7.75
2022-10-19T19:40:39.065Z,8.00
2022-10-19T19:45:44.223Z,9.50
2022-10-19T19:50:47.653Z,8.50
2022-10-19T19:55:50.817Z,7.50
2022-10-19T20:00:54.815Z,8.75
2022-10-19T20:06:02.193Z,10.00
2022-10-19T20:11:07.526Z,8.25
2022-10-19T20:16:13.479Z,9.00
2022-10-19T20:21:17.780Z,7.50
2022-10-19T20:26:22.192Z,9.00
2022-10-19T20:36:36.102Z,8.75
2022-10-19T20:41:38.752Z,8.50
2022-10-19T20:46:42.703Z,9.50
2022-10-19T20:51:45.397Z,10.75
2022-10-19T20:56:48.382Z,10.75
2022-10-19T21:01:54.131Z,10.25
2022-10-19T21:06:57.257Z,10.00
2022-10-19T21:12:01.157Z,9.25
2022-10-19T21:17:05.270Z,10.00
2022-10-19T21:22:08.465Z,8.25
2022-10-19T21:27:12.061Z,6.75
2022-10-19T21:32:18.001Z,6.75
2022-10-19T21:37:20.605Z,8.25
2022-10-19T21:42:23.280Z,7.75
2022-10-19T21:47:27.288Z,7.00
2022-10-19T21:52:29.962Z,6.75
2022-10-19T21:57:32.753Z,8.00
2022-10-19T22:02:36.957Z,7.50
2022-10-19T22:07:39.757Z,8.00
2022-10-19T22:12:42.382Z,7.00
2022-10-19T22:17:46.406Z,6.00
2022-10-19T22:22:51.477Z,8.25
2022-10-19T22:27:56.891Z,8.00
2022-10-19T22:33:01.098Z,7.50
2022-10-19T22:38:03.697Z,7.75
2022-10-19T22:43:06.949Z,7.25
2022-10-19T22:48:10.978Z,6.00
2022-10-19T22:53:14.220Z,5.75
2022-10-19T22:58:17.137Z,7.00
2022-10-19T23:03:21.064Z,7.00
2022-10-19T23:08:23.871Z,6.25
2022-10-19T23:13:26.621Z,6.75
2022-10-19T23:18:32.910Z,5.00
2022-10-19T23:23:37.301Z,6.00
2022-10-19T23:28:42.239Z,6.67
2022-10-19T23:33:46.897Z,6.50
2022-10-19T23:38:51.264Z,5.00
2022-10-19T23:43:53.964Z,5.25
2022-10-19T23:48:57.965Z,4.75
2022-10-19T23:54:00.611Z,5.75
2022-10-19T23:59:03.253Z,5.50
